Weather at Podgorica Airport / Podgorica Golubovci Airbase

Public forecast

Using degrees Celsius for public forecast. Weather courtesy of forecast.io.

Current aviation weather report (METAR) for Podgorica Airport / Podgorica Golubovci Airbase

2022/12/10 01:00 (retrieved 38 minutes ago)

LYPG 100100Z 11016KT 080V140 9999 -RA FEW020 SCT040 BKN070 14/11 Q1008 NOSIG

Closest aviation forecast (TAF) to Podgorica Airport / Podgorica Golubovci Airbase

Forecast is more than 12 hours old.

Closest forecast is Kukës International Airport, 55.3 nm (102.4 km) ESE.

2022/12/09 12:00 Ammendment (retrieved 14 hours ago)

TAF AMD LAKU 091530Z 0912/1012 CNL